Terminal Aerodrome Forecast
Issued by NWS Bismarck, ND

Home | Current Version | Previous Version | Text Only | Print | Product List | Glossary Off
Versions: 1 2 3 4 5 6 7 8 9 10 11 12 13 14 15 16 17 18 19 20 21

000
FTUS43 KBIS 311136
TAFBIS
TAF
KBIS 311136Z 3112/0112 12009KT P6SM -RA OVC070
     FM311400 13011KT P6SM VCSH OVC080
     FM311700 14013G21KT P6SM OVC090
     FM010200 13009KT P6SM BKN060 OVC080=

USA.gov is the U.S. government's official web portal to all federal, state and local government web resources and services.